Time;durP1;ratioP1;P1;durP2;ratioP2;P2;SDS_P1;SDS_P2;PMS_P1;PMS_P2;Temp;Humidity;BMP_temperature;BMP_pressure;BME280_temperature;BME280_humidity;BME280_pressure;Samples;Min_cycle;Max_cycle;Signal;HPM_P1;HPM_P2
2022/08/16 00:01:28;;;;;;;14.30;9.57;;;21.90;99.90;;;;;;4996240;28;131722;-78
2022/08/16 00:03:54;;;;;;;14.40;9.60;;;21.90;99.90;;;;;;4934440;28;211217;-78
2022/08/16 00:06:21;;;;;;;14.50;10.00;;;21.90;99.90;;;;;;5005039;28;211056;-78
2022/08/16 00:08:47;;;;;;;15.65;9.70;;;21.90;99.90;;;;;;4976447;28;182978;-78
2022/08/16 00:11:14;;;;;;;18.23;9.25;;;21.90;99.90;;;;;;4994111;28;261378;-78
2022/08/16 00:13:40;;;;;;;14.30;9.38;;;21.80;99.90;;;;;;4974792;28;207052;-77
2022/08/16 00:16:06;;;;;;;14.80;9.10;;;21.80;99.90;;;;;;4998568;28;250994;-79
2022/08/16 00:18:33;;;;;;;17.15;8.57;;;21.80;99.90;;;;;;4952758;28;212596;-79
2022/08/16 00:20:59;;;;;;;15.45;9.18;;;21.80;99.90;;;;;;5014978;28;269300;-78
2022/08/16 00:23:25;;;;;;;14.23;9.10;;;21.80;99.90;;;;;;4963465;28;213353;-78
2022/08/16 00:25:51;;;;;;;14.32;9.05;;;21.80;99.90;;;;;;5025161;28;20049;-78
2022/08/16 00:28:17;;;;;;;14.65;9.10;;;21.80;99.90;;;;;;4984629;28;198891;-79
2022/08/16 00:30:43;;;;;;;14.35;8.38;;;21.80;99.90;;;;;;5010962;28;20045;-78
2022/08/16 00:33:10;;;;;;;13.25;9.05;;;21.80;99.90;;;;;;4969457;28;130021;-78
2022/08/16 00:35:36;;;;;;;12.82;7.35;;;21.80;99.90;;;;;;4992698;28;20049;-78
2022/08/16 00:38:04;;;;;;;14.48;8.80;;;21.80;99.90;;;;;;4980521;28;255523;-79
2022/08/16 00:40:47;;;;;;;13.13;8.00;;;21.80;99.90;;;;;;5029795;28;20054;-78
2022/08/16 00:43:26;;;;;;;14.77;8.65;;;21.80;99.90;;;;;;4956793;28;209996;-78
2022/08/16 00:46:11;;;;;;;14.48;9.18;;;21.80;99.90;;;;;;5021042;28;20071;-77
2022/08/16 00:48:38;;;;;;;15.07;9.25;;;21.80;99.90;;;;;;4967519;28;205403;-78
2022/08/16 00:51:05;;;;;;;13.13;8.87;;;21.80;99.90;;;;;;5001400;28;277092;-79
2022/08/16 00:53:31;;;;;;;11.95;8.73;;;21.80;99.90;;;;;;4972516;28;203496;-77
2022/08/16 00:56:01;;;;;;;15.23;9.32;;;21.80;99.90;;;;;;4989380;28;276557;-78
2022/08/16 00:58:31;;;;;;;15.13;9.88;;;21.70;99.90;;;;;;4975552;28;130759;-79
2022/08/16 01:00:57;;;;;;;14.67;8.97;;;21.70;99.90;;;;;;4999827;28;265210;-78
2022/08/16 01:03:27;;;;;;;14.95;9.77;;;21.70;99.90;;;;;;4954323;28;207376;-78
2022/08/16 01:05:53;;;;;;;16.40;10.25;;;21.70;99.90;;;;;;5001234;28;20060;-77
2022/08/16 01:08:21;;;;;;;13.35;9.00;;;21.70;99.90;;;;;;4979375;28;207317;-79
2022/08/16 01:10:48;;;;;;;16.88;9.15;;;21.70;99.90;;;;;;5043443;28;20501;-78
2022/08/16 01:13:20;;;;;;;14.95;9.63;;;21.70;99.90;;;;;;4944700;28;207961;-79
2022/08/16 01:15:51;;;;;;;15.65;10.10;;;21.70;99.90;;;;;;5036774;28;20065;-78
2022/08/16 01:18:20;;;;;;;16.77;11.30;;;21.70;99.90;;;;;;4957786;28;205519;-78
2022/08/16 01:21:04;;;;;;;15.82;10.13;;;21.60;99.90;;;;;;5029336;28;20049;-79
2022/08/16 01:23:52;;;;;;;17.90;10.25;;;21.60;99.90;;;;;;4942848;28;195013;-79
2022/08/16 01:26:19;;;;;;;15.48;10.35;;;21.60;99.90;;;;;;5013719;28;248218;-77
2022/08/16 01:28:46;;;;;;;16.38;11.25;;;21.50;99.90;;;;;;4983652;28;217733;-78
2022/08/16 01:31:15;;;;;;;15.55;11.20;;;21.50;99.90;;;;;;5029304;28;267218;-78
2022/08/16 01:33:42;;;;;;;17.70;11.20;;;21.50;99.90;;;;;;4959056;28;207986;-78
2022/08/16 01:36:09;;;;;;;18.23;11.77;;;21.50;99.90;;;;;;5011760;28;247682;-78
2022/08/16 01:38:44;;;;;;;17.05;12.18;;;21.50;99.90;;;;;;4953934;28;229602;-79
2022/08/16 01:41:14;;;;;;;15.98;11.23;;;21.40;99.90;;;;;;4974293;28;269300;-79
2022/08/16 01:43:42;;;;;;;17.15;11.98;;;21.40;99.90;;;;;;4976460;28;204431;-79
2022/08/16 01:46:29;;;;;;;16.52;11.13;;;21.40;99.90;;;;;;5011960;28;268637;-79
2022/08/16 01:49:00;;;;;;;18.30;13.13;;;21.40;99.90;;;;;;4972236;28;209138;-79
2022/08/16 01:51:27;;;;;;;16.90;11.80;;;21.40;99.90;;;;;;4996283;28;194437;-80
2022/08/16 01:53:54;;;;;;;17.38;12.43;;;21.30;99.90;;;;;;4970999;28;204955;-78
2022/08/16 01:56:22;;;;;;;18.55;12.43;;;21.30;99.90;;;;;;5006192;28;201134;-79
2022/08/16 01:58:48;;;;;;;18.05;12.25;;;21.30;99.90;;;;;;4954868;28;205426;-78
2022/08/16 02:01:14;;;;;;;14.35;11.50;;;21.20;99.90;;;;;;4975141;28;259947;-77
2022/08/16 02:03:40;;;;;;;16.77;12.23;;;21.20;99.90;;;;;;4974135;28;207970;-79
2022/08/16 02:06:06;;;;;;;22.25;13.73;;;21.20;99.90;;;;;;5016043;28;260382;-78
2022/08/16 02:08:33;;;;;;;18.65;14.00;;;21.10;99.90;;;;;;4981184;28;212541;-78
2022/08/16 02:11:03;;;;;;;17.65;14.25;;;21.10;99.90;;;;;;5008278;28;249112;-79
2022/08/16 02:13:29;;;;;;;19.65;14.32;;;21.10;99.90;;;;;;4991594;28;184887;-78
2022/08/16 02:15:55;;;;;;;21.90;14.63;;;21.00;99.90;;;;;;5012938;28;273227;-78
2022/08/16 02:18:22;;;;;;;16.90;14.38;;;21.00;99.90;;;;;;4971333;28;217997;-77
2022/08/16 02:20:50;;;;;;;20.98;15.00;;;21.00;99.90;;;;;;5011425;28;20037;-78
2022/08/16 02:23:17;;;;;;;19.50;15.77;;;21.00;99.90;;;;;;4964648;28;262866;-79
2022/08/16 02:25:44;;;;;;;22.83;16.10;;;21.00;99.90;;;;;;5012745;28;20057;-78
2022/08/16 02:28:10;;;;;;;19.42;16.02;;;21.00;99.90;;;;;;4954781;28;224885;-78
2022/08/16 02:30:36;;;;;;;19.70;16.35;;;21.00;99.90;;;;;;5032730;28;20052;-77
2022/08/16 02:33:03;;;;;;;21.33;15.95;;;21.00;99.90;;;;;;4963311;28;213033;-78
2022/08/16 02:35:31;;;;;;;17.58;15.10;;;21.00;99.90;;;;;;5027040;28;20054;-78
2022/08/16 02:37:57;;;;;;;20.33;16.13;;;21.00;99.90;;;;;;4973693;28;102460;-78
2022/08/16 02:40:24;;;;;;;18.00;14.75;;;21.00;99.90;;;;;;4990232;28;20125;-77
2022/08/16 02:42:51;;;;;;;17.63;15.02;;;21.00;99.90;;;;;;4975328;28;221486;-78
2022/08/16 02:45:20;;;;;;;21.15;15.70;;;21.00;99.90;;;;;;4997132;28;234069;-79
2022/08/16 02:47:47;;;;;;;20.33;14.52;;;21.00;99.90;;;;;;4990831;28;240511;-78
2022/08/16 02:50:13;;;;;;;19.70;14.15;;;20.90;99.90;;;;;;5017597;28;210760;-77
2022/08/16 02:52:39;;;;;;;17.63;14.18;;;20.90;99.90;;;;;;5028051;28;73954;-78
2022/08/16 02:55:06;;;;;;;19.40;13.82;;;20.90;99.90;;;;;;4977264;28;205355;-78
2022/08/16 02:57:33;;;;;;;19.08;14.15;;;20.90;99.90;;;;;;4993452;28;175837;-77
2022/08/16 03:00:04;;;;;;;17.77;14.32;;;20.80;99.90;;;;;;4981712;28;183008;-78
2022/08/16 03:02:30;;;;;;;17.88;14.20;;;20.80;99.90;;;;;;4982942;28;174112;-79
2022/08/16 03:04:57;;;;;;;18.63;14.50;;;20.70;99.90;;;;;;4973985;28;213488;-78
2022/08/16 03:07:23;;;;;;;18.65;14.80;;;20.70;99.90;;;;;;4984793;28;135247;-77
2022/08/16 03:09:49;;;;;;;18.33;14.13;;;20.70;99.90;;;;;;4960041;28;211347;-78
2022/08/16 03:12:15;;;;;;;19.08;14.77;;;20.60;99.90;;;;;;4998316;28;84686;-78
2022/08/16 03:14:41;;;;;;;17.92;14.63;;;20.60;99.90;;;;;;4944286;28;207884;-77
2022/08/16 03:17:07;;;;;;;16.70;13.70;;;20.50;99.90;;;;;;4995856;28;235960;-78
2022/08/16 03:19:34;;;;;;;17.65;14.55;;;20.50;99.90;;;;;;4968466;28;209170;-78
2022/08/16 03:22:00;;;;;;;19.73;14.45;;;20.50;99.90;;;;;;5025693;28;253748;-77
2022/08/16 03:24:27;;;;;;;19.10;14.25;;;20.40;99.90;;;;;;4975131;28;210198;-78
2022/08/16 03:26:54;;;;;;;18.33;14.40;;;20.40;99.90;;;;;;5002616;28;90490;-78
2022/08/16 03:29:20;;;;;;;19.63;13.98;;;20.30;99.90;;;;;;4940612;28;215976;-78
2022/08/16 03:31:46;;;;;;;21.50;15.35;;;20.30;99.90;;;;;;5010691;28;86309;-78
2022/08/16 03:34:12;;;;;;;18.58;14.48;;;20.30;99.90;;;;;;4970608;28;206083;-77
2022/08/16 03:36:38;;;;;;;18.15;15.20;;;20.30;99.90;;;;;;5012985;28;222489;-77
2022/08/16 03:39:04;;;;;;;20.33;15.68;;;20.20;99.90;;;;;;5007059;28;207451;-78
2022/08/16 03:41:30;;;;;;;19.50;15.48;;;20.20;99.90;;;;;;5018563;28;44877;-78
2022/08/16 03:43:57;;;;;;;17.95;15.27;;;20.10;99.90;;;;;;4973789;28;210830;-78
2022/08/16 03:46:23;;;;;;;21.15;16.20;;;20.10;99.90;;;;;;5002789;28;230457;-78
2022/08/16 03:48:49;;;;;;;18.70;15.73;;;20.00;99.90;;;;;;4971303;28;211283;-78
2022/08/16 03:51:17;;;;;;;22.65;16.13;;;20.00;99.90;;;;;;5011250;28;254818;-78
2022/08/16 03:53:43;;;;;;;19.13;15.18;;;20.00;99.90;;;;;;4984793;28;207067;-77
2022/08/16 03:56:10;;;;;;;19.73;15.68;;;20.00;99.90;;;;;;5010920;28;253695;-79
2022/08/16 03:58:36;;;;;;;19.50;15.02;;;19.90;99.90;;;;;;4949402;28;210160;-79
2022/08/16 04:01:03;;;;;;;18.47;15.33;;;19.90;99.90;;;;;;4974650;28;251795;-78
2022/08/16 04:03:30;;;;;;;18.15;15.73;;;19.90;99.90;;;;;;4960542;28;216657;-78
2022/08/16 04:05:56;;;;;;;19.92;15.25;;;19.80;99.90;;;;;;4981906;28;273773;-79
2022/08/16 04:08:22;;;;;;;22.65;15.60;;;19.80;99.90;;;;;;4966990;28;209174;-79
2022/08/16 04:10:54;;;;;;;20.55;14.48;;;19.80;99.90;;;;;;5018085;28;20060;-78
2022/08/16 04:13:20;;;;;;;19.10;15.77;;;19.80;99.90;;;;;;4932212;28;205245;-78
2022/08/16 04:15:46;;;;;;;17.88;14.57;;;19.70;99.90;;;;;;4976434;28;20057;-78
2022/08/16 04:18:13;;;;;;;19.77;14.90;;;19.70;99.90;;;;;;4935615;28;211400;-78
2022/08/16 04:20:39;;;;;;;20.02;15.40;;;19.70;99.90;;;;;;5009168;28;20053;-79
2022/08/16 04:23:07;;;;;;;19.15;15.02;;;19.70;99.90;;;;;;4958492;28;209174;-79
2022/08/16 04:25:35;;;;;;;17.60;14.55;;;19.70;99.90;;;;;;5034457;28;20045;-78
2022/08/16 04:28:01;;;;;;;18.50;14.52;;;19.70;99.90;;;;;;4966113;28;273115;-78
2022/08/16 04:30:27;;;;;;;18.38;14.38;;;19.60;99.90;;;;;;5008116;28;20628;-78
2022/08/16 04:32:54;;;;;;;19.00;13.40;;;19.60;99.90;;;;;;4968091;28;254038;-78
2022/08/16 04:35:22;;;;;;;18.45;14.05;;;19.60;99.90;;;;;;5026637;28;20477;-78
2022/08/16 04:37:49;;;;;;;19.85;15.30;;;19.60;99.90;;;;;;4990500;28;143912;-80
2022/08/16 04:40:18;;;;;;;22.38;15.70;;;19.50;99.90;;;;;;4982332;28;88935;-81
2022/08/16 04:42:44;;;;;;;18.83;15.27;;;19.50;99.90;;;;;;4995189;28;184619;-80
2022/08/16 04:45:13;;;;;;;18.67;15.43;;;19.50;99.90;;;;;;4981394;28;247455;-79
2022/08/16 04:47:41;;;;;;;18.35;14.98;;;19.50;99.90;;;;;;4998352;28;103647;-80
2022/08/16 04:50:33;;;;;;;18.77;16.65;;;19.50;99.90;;;;;;4989004;28;207529;-80
2022/08/16 04:52:59;;;;;;;19.25;16.08;;;19.50;99.90;;;;;;4961538;28;228814;-80
2022/08/16 04:55:28;;;;;;;19.00;15.43;;;19.50;99.90;;;;;;4992818;28;20503;-80
2022/08/16 04:57:55;;;;;;;17.67;15.23;;;19.50;99.90;;;;;;4962021;28;208490;-81
2022/08/16 05:00:25;;;;;;;21.55;16.05;;;19.50;99.90;;;;;;5038602;28;20510;-82
2022/08/16 05:02:53;;;;;;;20.45;16.13;;;19.50;99.90;;;;;;4945182;28;206347;-78
2022/08/16 05:05:21;;;;;;;17.77;14.93;;;19.50;99.90;;;;;;5016269;28;20510;-78
2022/08/16 05:07:47;;;;;;;18.70;16.45;;;19.50;99.90;;;;;;4990990;28;195295;-79
2022/08/16 05:10:14;;;;;;;18.20;15.38;;;19.50;99.90;;;;;;4995739;28;164232;-79
2022/08/16 05:12:40;;;;;;;20.58;16.17;;;19.50;99.90;;;;;;5017664;28;249993;-78
2022/08/16 05:15:08;;;;;;;18.73;14.90;;;19.60;99.90;;;;;;4992510;28;211020;-78
2022/08/16 05:17:35;;;;;;;19.70;16.38;;;19.60;99.90;;;;;;5000845;28;37892;-77
2022/08/16 05:20:03;;;;;;;17.85;15.77;;;19.60;99.90;;;;;;4960984;28;207808;-79
2022/08/16 05:22:29;;;;;;;21.42;17.17;;;19.60;99.90;;;;;;5010792;28;20045;-78
2022/08/16 05:24:55;;;;;;;22.35;16.75;;;19.60;99.90;;;;;;4966478;28;208513;-79
2022/08/16 05:27:22;;;;;;;22.70;17.35;;;19.60;99.90;;;;;;5011551;28;255332;-78
2022/08/16 05:29:48;;;;;;;22.70;17.27;;;19.70;99.90;;;;;;4977949;28;208121;-78
2022/08/16 05:32:14;;;;;;;22.38;16.67;;;19.70;99.90;;;;;;5014555;28;235805;-78
2022/08/16 05:34:40;;;;;;;21.88;17.25;;;19.70;99.90;;;;;;4988428;28;212756;-79
2022/08/16 05:37:06;;;;;;;20.33;18.13;;;19.80;99.90;;;;;;5019742;28;46251;-78
2022/08/16 05:39:32;;;;;;;20.05;17.48;;;19.80;99.90;;;;;;4953722;28;206355;-78
2022/08/16 05:41:58;;;;;;;23.73;17.70;;;19.90;99.90;;;;;;5009843;28;202703;-81
2022/08/16 05:44:24;;;;;;;23.17;18.58;;;19.90;99.90;;;;;;4962497;28;206405;-79
2022/08/16 05:46:53;;;;;;;20.38;17.27;;;20.00;99.90;;;;;;5000115;28;241203;-79
2022/08/16 05:49:19;;;;;;;19.27;16.30;;;20.10;99.90;;;;;;4945962;28;210184;-78
2022/08/16 05:51:46;;;;;;;21.40;17.73;;;20.20;99.90;;;;;;4994735;28;274190;-79
2022/08/16 05:54:16;;;;;;;18.83;16.50;;;20.30;99.90;;;;;;4969621;28;198867;-79
2022/08/16 05:56:44;;;;;;;19.88;16.45;;;20.30;99.90;;;;;;5015215;28;20046;-78
2022/08/16 05:59:12;;;;;;;22.13;16.80;;;20.40;99.90;;;;;;4985291;28;169877;-79
2022/08/16 06:01:40;;;;;;;21.60;16.42;;;20.50;99.90;;;;;;5000936;28;175307;-79
2022/08/16 06:04:07;;;;;;;21.10;17.27;;;20.50;99.90;;;;;;4978455;28;237159;-79
2022/08/16 06:06:34;;;;;;;20.00;15.80;;;20.60;99.90;;;;;;4994397;28;159894;-79
2022/08/16 06:09:00;;;;;;;17.85;15.43;;;20.60;99.90;;;;;;4980280;28;209692;-79
2022/08/16 06:11:26;;;;;;;21.88;16.00;;;20.60;99.90;;;;;;5008142;28;206845;-78
2022/08/16 06:13:52;;;;;;;20.60;15.73;;;20.70;99.90;;;;;;4963387;28;205802;-78
2022/08/16 06:16:19;;;;;;;22.05;14.80;;;20.80;99.90;;;;;;5014715;28;146737;-78
2022/08/16 06:18:45;;;;;;;19.98;15.10;;;20.90;99.90;;;;;;4974958;28;204642;-79
2022/08/16 06:21:13;;;;;;;20.98;14.90;;;21.00;99.90;;;;;;5001048;28;263735;-79
2022/08/16 06:23:39;;;;;;;18.60;14.95;;;21.00;99.90;;;;;;4978707;28;209312;-78
2022/08/16 06:26:06;;;;;;;18.30;14.65;;;21.10;99.90;;;;;;4992732;28;248323;-78
2022/08/16 06:28:34;;;;;;;16.48;14.45;;;21.00;99.90;;;;;;4958689;28;209735;-78
2022/08/16 06:31:00;;;;;;;20.30;14.75;;;20.90;99.90;;;;;;4968281;28;267448;-77
2022/08/16 06:33:27;;;;;;;21.45;14.77;;;20.90;99.90;;;;;;4943704;28;204348;-77
2022/08/16 06:35:54;;;;;;;19.98;14.13;;;21.00;99.90;;;;;;4992456;28;20062;-78
2022/08/16 06:38:21;;;;;;;19.27;14.50;;;21.10;99.90;;;;;;4957995;28;207105;-78
2022/08/16 06:40:47;;;;;;;19.10;14.43;;;21.20;99.90;;;;;;5050636;28;20045;-78
2022/08/16 06:43:14;;;;;;;19.80;15.32;;;21.30;99.90;;;;;;4957041;28;260943;-78
2022/08/16 06:45:42;;;;;;;20.48;14.05;;;21.40;99.90;;;;;;5013284;28;20056;-79
2022/08/16 06:48:09;;;;;;;20.70;14.15;;;21.70;99.90;;;;;;4963557;28;210528;-79
2022/08/16 06:50:35;;;;;;;22.90;14.10;;;21.90;99.90;;;;;;5027668;28;20602;-79
2022/08/16 06:53:03;;;;;;;20.30;13.90;;;22.20;99.90;;;;;;4960182;28;249685;-79
2022/08/16 06:55:30;;;;;;;20.10;14.60;;;22.40;99.90;;;;;;5027658;28;20133;-79
2022/08/16 06:57:56;;;;;;;22.45;14.10;;;22.60;99.90;;;;;;4966114;28;266172;-79
2022/08/16 07:00:23;;;;;;;19.58;14.50;;;22.80;99.90;;;;;;4984225;28;20581;-78
2022/08/16 07:02:52;;;;;;;20.98;14.40;;;22.90;99.90;;;;;;4971163;28;202447;-79
2022/08/16 07:05:19;;;;;;;18.00;14.32;;;23.00;99.90;;;;;;5018764;28;211841;-80
2022/08/16 07:07:47;;;;;;;19.85;14.00;;;23.20;99.90;;;;;;5006889;28;52640;-77
2022/08/16 07:10:15;;;;;;;16.90;13.20;;;23.40;99.90;;;;;;4954995;28;207151;-79
2022/08/16 07:12:42;;;;;;;19.85;13.73;;;23.50;99.90;;;;;;4998648;28;230095;-79
2022/08/16 07:15:09;;;;;;;16.85;13.82;;;23.60;99.90;;;;;;4952716;28;203810;-78
2022/08/16 07:17:35;;;;;;;20.02;13.13;;;23.70;99.90;;;;;;4990609;28;228772;-79
2022/08/16 07:20:07;;;;;;;16.27;12.90;;;23.70;99.90;;;;;;4998703;28;212989;-78
2022/08/16 07:22:33;;;;;;;17.65;12.90;;;23.90;99.90;;;;;;5003071;28;238604;-78
2022/08/16 07:25:00;;;;;;;17.38;11.77;;;24.00;99.90;;;;;;4984609;28;216062;-78
2022/08/16 07:27:26;;;;;;;17.73;12.70;;;24.10;99.90;;;;;;4994252;28;187201;-79
2022/08/16 07:29:52;;;;;;;17.60;12.88;;;24.20;99.90;;;;;;4977976;28;207023;-79
2022/08/16 07:32:20;;;;;;;17.65;12.82;;;24.30;99.90;;;;;;4996466;28;151917;-78
2022/08/16 07:34:47;;;;;;;15.13;12.18;;;24.30;99.90;;;;;;4970302;28;206305;-78
2022/08/16 07:37:14;;;;;;;15.25;11.88;;;24.40;99.90;;;;;;4998425;28;186626;-79
2022/08/16 07:39:40;;;;;;;14.82;11.55;;;24.50;99.90;;;;;;4967112;28;141893;-78
2022/08/16 07:42:07;;;;;;;15.48;11.82;;;24.80;99.90;;;;;;5011653;28;270412;-80
2022/08/16 07:44:33;;;;;;;15.75;12.23;;;25.10;99.90;;;;;;4947769;28;213651;-80
2022/08/16 07:46:59;;;;;;;16.48;12.23;;;25.10;99.90;;;;;;4997078;28;26289;-80
2022/08/16 07:49:25;;;;;;;19.83;11.80;;;25.10;99.90;;;;;;4988577;28;212566;-80
2022/08/16 07:51:52;;;;;;;15.35;11.57;;;25.20;99.70;;;;;;5005630;28;252682;-80
2022/08/16 07:54:18;;;;;;;17.17;11.60;;;25.30;99.90;;;;;;4958602;28;222285;-80
2022/08/16 07:56:48;;;;;;;18.00;11.77;;;25.40;99.90;;;;;;5017246;28;65889;-82
2022/08/16 07:59:15;;;;;;;13.80;11.40;;;25.60;99.90;;;;;;4974838;28;212129;-82
2022/08/16 08:01:41;;;;;;;17.23;11.48;;;25.70;99.40;;;;;;4990219;28;151922;-82
2022/08/16 08:04:11;;;;;;;17.58;10.95;;;25.80;99.40;;;;;;4979052;28;149115;-81
2022/08/16 08:06:38;;;;;;;15.95;10.55;;;25.90;99.20;;;;;;5016642;28;262415;-81
2022/08/16 08:09:05;;;;;;;17.83;11.02;;;26.00;99.10;;;;;;4985838;28;210525;-81
2022/08/16 08:11:31;;;;;;;18.02;10.52;;;26.10;99.20;;;;;;5021099;28;245010;-81
2022/08/16 08:13:59;;;;;;;16.13;10.38;;;26.40;98.90;;;;;;4978712;28;201617;-82
2022/08/16 08:16:25;;;;;;;15.75;10.13;;;26.60;98.90;;;;;;5000228;28;267511;-82
2022/08/16 08:18:53;;;;;;;16.40;9.30;;;26.90;98.30;;;;;;4957068;28;195244;-83
2022/08/16 08:21:21;;;;;;;16.60;9.82;;;26.90;97.60;;;;;;4988367;28;99404;-81
2022/08/16 08:23:48;;;;;;;12.75;9.02;;;27.00;97.70;;;;;;4961547;28;206297;-81
2022/08/16 08:26:14;;;;;;;13.25;8.45;;;27.10;97.40;;;;;;5012351;28;268868;-82
2022/08/16 08:28:40;;;;;;;14.25;8.77;;;27.00;96.90;;;;;;4986556;28;211646;-80
2022/08/16 08:31:07;;;;;;;13.80;7.82;;;27.00;96.90;;;;;;5002872;28;267763;-81
2022/08/16 08:33:34;;;;;;;12.85;7.35;;;27.10;96.80;;;;;;4960314;28;214661;-82
2022/08/16 08:36:03;;;;;;;14.53;7.73;;;27.30;96.60;;;;;;4982717;28;264936;-81
2022/08/16 08:38:30;;;;;;;13.23;7.50;;;27.20;95.60;;;;;;4963016;28;218387;-81
2022/08/16 08:40:56;;;;;;;12.65;7.30;;;27.20;95.90;;;;;;5006758;28;262943;-80
2022/08/16 08:43:22;;;;;;;15.60;6.93;;;27.50;96.40;;;;;;4974738;28;206058;-78
2022/08/16 08:45:50;;;;;;;10.10;5.70;;;27.50;94.90;;;;;;5008987;28;20058;-79
2022/08/16 08:48:18;;;;;;;13.82;6.05;;;27.50;93.50;;;;;;4964987;28;198707;-80
2022/08/16 08:50:44;;;;;;;12.02;5.93;;;27.40;94.00;;;;;;5010206;28;20057;-79
2022/08/16 08:53:10;;;;;;;13.27;6.55;;;27.60;94.20;;;;;;4993238;28;219800;-79
2022/08/16 08:55:36;;;;;;;12.65;6.05;;;27.90;94.00;;;;;;5012910;28;21000;-80
2022/08/16 08:58:03;;;;;;;15.60;6.63;;;28.10;94.00;;;;;;4977751;28;230902;-79
2022/08/16 09:00:30;;;;;;;11.57;6.72;;;28.20;93.50;;;;;;4999219;28;20048;-79
2022/08/16 09:02:56;;;;;;;14.43;6.35;;;28.40;93.30;;;;;;4949624;28;204254;-80
2022/08/16 09:05:26;;;;;;;12.70;6.80;;;28.50;93.70;;;;;;5013148;28;20065;-77
2022/08/16 09:07:54;;;;;;;13.00;6.22;;;28.60;93.20;;;;;;4934725;28;218200;-78
2022/08/16 09:10:21;;;;;;;11.55;5.80;;;28.80;92.80;;;;;;4999195;28;20061;-78
2022/08/16 09:12:47;;;;;;;11.25;6.75;;;29.00;92.90;;;;;;4994380;28;55098;-78
2022/08/16 09:15:16;;;;;;;12.32;6.57;;;29.10;92.20;;;;;;4976021;28;171467;-78
2022/08/16 09:17:42;;;;;;;9.98;5.90;;;28.90;92.40;;;;;;5007203;28;269069;-79
2022/08/16 09:20:12;;;;;;;13.75;6.85;;;29.20;92.00;;;;;;4963283;28;215436;-79
2022/08/16 09:22:39;;;;;;;10.13;6.00;;;29.30;91.90;;;;;;4995075;28;245631;-78
2022/08/16 09:25:06;;;;;;;10.40;6.57;;;29.60;91.70;;;;;;4973146;28;204744;-80
2022/08/16 09:27:32;;;;;;;11.50;6.47;;;29.70;91.60;;;;;;5020521;28;40421;-79
2022/08/16 09:29:58;;;;;;;13.02;6.47;;;29.90;91.00;;;;;;4963879;28;207327;-79
2022/08/16 09:32:24;;;;;;;12.93;6.13;;;30.20;90.80;;;;;;5022514;28;276934;-79
2022/08/16 09:34:51;;;;;;;15.80;7.00;;;30.30;90.80;;;;;;4951741;28;205820;-79
2022/08/16 09:37:17;;;;;;;14.40;6.63;;;30.50;88.30;;;;;;5000800;28;271816;-79
2022/08/16 09:39:43;;;;;;;12.02;5.63;;;30.40;88.60;;;;;;4976108;28;211035;-80
2022/08/16 09:42:10;;;;;;;10.15;4.93;;;30.40;88.00;;;;;;5002311;28;255417;-79
2022/08/16 09:44:36;;;;;;;14.80;5.57;;;30.60;87.10;;;;;;4960350;28;204481;-78
2022/08/16 09:47:03;;;;;;;9.95;5.05;;;30.70;85.50;;;;;;5005291;28;38543;-79
2022/08/16 09:49:29;;;;;;;11.68;4.90;;;30.60;84.30;;;;;;4983561;28;215088;-79
2022/08/16 09:51:55;;;;;;;10.85;4.88;;;30.80;84.80;;;;;;5019787;28;252306;-78
2022/08/16 09:54:23;;;;;;;10.48;4.50;;;31.00;82.70;;;;;;4973614;28;214525;-78
2022/08/16 09:56:50;;;;;;;12.32;5.05;;;31.00;81.90;;;;;;4999527;28;170155;-78
2022/08/16 09:59:17;;;;;;;11.32;5.35;;;30.90;79.80;;;;;;4980779;28;207711;-79
2022/08/16 10:01:47;;;;;;;10.70;5.10;;;30.70;80.60;;;;;;4969828;28;244108;-79
2022/08/16 10:04:14;;;;;;;12.25;5.40;;;30.40;80.20;;;;;;4951639;28;206437;-79
2022/08/16 10:06:40;;;;;;;11.88;5.30;;;30.60;80.90;;;;;;4972280;28;245574;-79
2022/08/16 10:09:08;;;;;;;9.88;5.30;;;31.00;81.00;;;;;;4977179;28;220952;-79
2022/08/16 10:14:21;;;;;;;12.10;5.90;;;31.30;79.00;;;;;;4983475;28;209615;-79
2022/08/16 10:16:48;;;;;;;12.05;5.03;;;31.60;78.10;;;;;;4999967;28;259753;-79
2022/08/16 10:19:15;;;;;;;12.68;5.28;;;31.70;78.60;;;;;;4982387;28;208365;-79
2022/08/16 10:21:42;;;;;;;10.85;5.10;;;31.90;76.80;;;;;;4994260;28;273732;-80
2022/08/16 10:24:08;;;;;;;13.65;5.60;;;31.90;75.20;;;;;;4962041;28;200740;-82
2022/08/16 10:26:36;;;;;;;12.82;5.97;;;31.80;76.10;;;;;;5008093;28;255346;-85
2022/08/16 10:29:05;;;;;;;10.68;5.40;;;31.90;75.70;;;;;;4991151;28;208581;-81
2022/08/16 10:31:32;;;;;;;13.05;5.72;;;32.10;76.20;;;;;;4993740;28;261900;-82
2022/08/16 10:34:00;;;;;;;11.38;5.80;;;32.30;75.20;;;;;;4978959;28;213554;-81
2022/08/16 10:36:27;;;;;;;13.57;5.90;;;32.20;73.10;;;;;;4980510;28;151587;-82
2022/08/16 10:38:53;;;;;;;10.35;6.22;;;32.10;73.60;;;;;;4990484;28;205989;-81
2022/08/16 10:41:19;;;;;;;11.75;5.95;;;32.30;73.90;;;;;;5020274;28;112953;-80
2022/08/16 10:43:46;;;;;;;11.75;5.50;;;32.40;73.80;;;;;;4990324;28;212953;-81
2022/08/16 10:46:13;;;;;;;12.05;5.70;;;32.50;73.80;;;;;;5033234;28;269688;-81
2022/08/16 10:48:41;;;;;;;9.55;5.53;;;32.70;73.60;;;;;;4974619;28;205076;-81
2022/08/16 10:51:08;;;;;;;13.50;5.53;;;32.90;71.70;;;;;;4996808;28;275375;-81
2022/08/16 10:53:35;;;;;;;10.10;5.50;;;32.80;70.70;;;;;;4968481;28;207353;-81
2022/08/16 10:56:05;;;;;;;11.00;5.82;;;32.80;71.60;;;;;;5025108;28;263558;-81
2022/08/16 10:58:32;;;;;;;;;;;32.90;69.70;;;;;;4990733;28;217989;-81
2022/08/16 11:00:58;;;;;;;9.77;5.28;;;33.00;70.40;;;;;;4992940;28;275181;-80
2022/08/16 11:03:27;;;;;;;10.80;4.32;;;33.10;70.60;;;;;;4972545;28;204326;-80
2022/08/16 11:05:53;;;;;;;11.02;4.97;;;33.20;67.80;;;;;;5027328;28;20525;-80
2022/08/16 11:08:20;;;;;;;11.57;4.97;;;33.30;67.90;;;;;;4946108;28;207358;-81
2022/08/16 11:10:46;;;;;;;11.68;4.90;;;33.60;68.20;;;;;;5017330;28;20061;-80
2022/08/16 11:13:18;;;;;;;10.13;4.55;;;33.80;67.40;;;;;;4969511;28;276267;-81
2022/08/16 11:15:45;;;;;;;11.52;4.30;;;33.60;66.70;;;;;;5039470;28;20054;-83
2022/08/16 11:18:14;;;;;;;10.35;4.82;;;33.60;65.50;;;;;;4952209;28;259284;-81
2022/08/16 11:20:43;;;;;;;11.48;4.53;;;33.60;64.10;;;;;;5031144;28;20054;-81
2022/08/16 11:23:10;;;;;;;9.80;4.90;;;33.40;65.30;;;;;;4975558;28;264074;-81
2022/08/16 11:25:37;;;;;;;14.75;4.60;;;33.50;65.50;;;;;;5021470;28;20058;-82
2022/08/16 11:28:05;;;;;;;9.20;4.43;;;33.50;65.80;;;;;;4978943;28;292687;-82
2022/08/16 11:30:34;;;;;;;13.13;5.15;;;33.60;65.00;;;;;;5006331;28;20066;-82
2022/08/16 11:33:08;;;;;;;11.35;4.95;;;33.40;64.00;;;;;;4977351;28;215464;-81
2022/08/16 11:35:36;;;;;;;11.18;5.30;;;33.50;64.90;;;;;;5044159;28;20057;-81
2022/08/16 11:38:09;;;;;;;13.83;5.10;;;33.60;64.90;;;;;;4963000;28;228143;-81
2022/08/16 11:40:45;;;;;;;12.80;5.30;;;33.90;63.40;;;;;;5039433;28;20054;-81
2022/08/16 11:43:13;;;;;;;9.52;4.70;;;34.00;64.20;;;;;;4980893;28;267379;-81
2022/08/16 11:45:40;;;;;;;10.30;4.78;;;34.20;63.40;;;;;;5025496;28;20053;-81
2022/08/16 11:48:06;;;;;;;12.00;5.40;;;34.20;64.60;;;;;;4969178;28;209379;-81
2022/08/16 11:50:33;;;;;;;11.63;5.30;;;34.10;63.20;;;;;;5015992;28;20513;-81
2022/08/16 11:53:01;;;;;;;10.13;5.00;;;34.30;62.60;;;;;;4962944;28;208090;-82
2022/08/16 11:55:27;;;;;;;11.00;5.07;;;34.30;63.50;;;;;;5017123;28;20061;-82
2022/08/16 11:57:53;;;;;;;11.40;4.50;;;34.30;63.60;;;;;;4959603;28;275153;-81
2022/08/16 12:00:19;;;;;;;10.98;5.90;;;34.70;63.10;;;;;;5033175;28;20097;-82
2022/08/16 12:02:45;;;;;;;10.93;5.57;;;34.90;62.10;;;;;;4967761;28;140326;-82
2022/08/16 12:05:14;;;;;;;12.18;4.60;;;35.20;61.90;;;;;;4995933;28;205835;-82
2022/08/16 12:07:41;;;;;;;15.25;5.80;;;35.30;62.10;;;;;;4977613;28;176209;-83
2022/08/16 12:10:15;;;;;;;11.13;4.80;;;35.60;61.30;;;;;;4990479;28;205582;-81
2022/08/16 12:12:42;;;;;;;10.55;4.80;;;35.80;61.60;;;;;;5023374;28;170129;-82
2022/08/16 12:15:10;;;;;;;12.13;5.03;;;36.00;60.90;;;;;;4972161;28;206473;-84
2022/08/16 12:17:38;;;;;;;10.38;4.15;;;36.00;59.50;;;;;;5007862;28;243481;-84
2022/08/16 12:20:10;;;;;;;10.30;4.15;;;36.20;59.90;;;;;;4995545;28;207743;-83
2022/08/16 12:22:36;;;;;;;11.80;4.40;;;36.30;57.20;;;;;;4995736;28;235710;-82
2022/08/16 12:25:12;;;;;;;11.60;4.50;;;36.20;58.40;;;;;;4982506;28;211833;-83
2022/08/16 12:27:39;;;;;;;9.25;4.10;;;36.20;58.00;;;;;;5016103;28;166901;-82